Time;durP1;ratioP1;P1;durP2;ratioP2;P2;SDS_P1;SDS_P2;PMS_P1;PMS_P2;Temp;Humidity;BMP_temperature;BMP_pressure;BME280_temperature;BME280_humidity;BME280_pressure;Samples;Min_cycle;Max_cycle;Signal;HPM_P1;HPM_P2
2022/02/23 00:02:40;;;;;;;1.88;0.77;;;6.50;99.90;;;;;;20628272;28;20057;-46
2022/02/23 00:12:41;;;;;;;7.95;0.80;;;6.40;99.90;;;;;;20636155;28;20046;-46
2022/02/23 00:22:43;;;;;;;1.33;0.50;;;6.30;99.90;;;;;;20633718;28;20058;-46
2022/02/23 00:32:44;;;;;;;1.35;0.45;;;6.10;99.90;;;;;;20646104;28;20038;-46
2022/02/23 00:42:45;;;;;;;6.60;0.90;;;6.00;99.90;;;;;;20641626;28;20408;-46
2022/02/23 00:52:47;;;;;;;2.88;0.30;;;5.90;99.90;;;;;;20644965;28;20517;-46
2022/02/23 01:02:48;;;;;;;5.38;0.80;;;6.00;99.90;;;;;;20644859;28;20050;-46
2022/02/23 01:12:50;;;;;;;3.08;0.80;;;5.90;99.90;;;;;;20639037;28;20038;-46
2022/02/23 01:22:55;;;;;;;3.85;0.47;;;5.90;99.90;;;;;;20658614;28;20379;-46
2022/02/23 01:32:56;;;;;;;3.78;0.50;;;5.70;99.90;;;;;;20656660;28;20046;-46
2022/02/23 01:42:58;;;;;;;6.20;0.70;;;5.70;99.90;;;;;;20649111;28;20053;-46
2022/02/23 01:52:59;;;;;;;9.85;1.23;;;5.80;99.90;;;;;;20666511;28;20068;-46
2022/02/23 02:03:00;;;;;;;4.15;0.85;;;5.80;99.90;;;;;;20658532;28;20053;-46
2022/02/23 02:13:02;;;;;;;1.75;0.57;;;5.80;99.90;;;;;;20649436;28;20039;-46
2022/02/23 02:23:03;;;;;;;2.53;0.90;;;5.70;99.90;;;;;;20648728;28;20046;-46
2022/02/23 02:33:04;;;;;;;2.45;0.77;;;5.50;99.90;;;;;;20657270;28;20038;-46
2022/02/23 02:43:08;;;;;;;1.23;0.30;;;5.40;99.90;;;;;;20645065;28;20403;-45
2022/02/23 02:53:10;;;;;;;3.05;0.70;;;5.40;99.90;;;;;;20642639;28;20038;-46
2022/02/23 03:03:11;;;;;;;2.40;0.95;;;5.20;99.90;;;;;;20629493;28;20050;-46
2022/02/23 03:13:12;;;;;;;7.00;0.22;;;5.20;99.90;;;;;;20643110;28;20446;-46
2022/02/23 03:23:13;;;;;;;2.65;1.25;;;5.20;99.90;;;;;;20646118;28;20061;-46
2022/02/23 03:33:14;;;;;;;3.08;0.63;;;5.20;99.90;;;;;;20648670;28;20026;-46
2022/02/23 03:43:17;;;;;;;3.40;0.95;;;5.20;99.90;;;;;;20647298;28;20042;-46
2022/02/23 03:53:18;;;;;;;0.95;0.25;;;5.00;99.90;;;;;;20641433;28;20039;-46
2022/02/23 04:03:19;;;;;;;4.38;0.60;;;4.90;99.90;;;;;;20643099;28;20065;-46
2022/02/23 04:13:21;;;;;;;1.42;0.57;;;4.80;99.90;;;;;;20557738;28;20034;-46
2022/02/23 04:23:22;;;;;;;6.38;0.68;;;4.70;99.90;;;;;;20558615;28;20042;-46
2022/02/23 04:33:24;;;;;;;4.00;1.30;;;4.70;99.90;;;;;;20605761;28;20816;-46
2022/02/23 04:43:25;;;;;;;2.22;0.60;;;4.70;99.90;;;;;;20651186;28;20042;-46
2022/02/23 04:53:26;;;;;;;2.92;1.23;;;4.70;99.90;;;;;;20634768;28;20053;-46
2022/02/23 05:03:27;;;;;;;1.23;0.70;;;4.90;99.90;;;;;;20662510;28;20046;-46
2022/02/23 05:13:30;;;;;;;8.50;0.47;;;5.00;99.90;;;;;;20660272;28;20088;-46
2022/02/23 05:23:31;;;;;;;3.90;1.10;;;5.00;99.90;;;;;;20667172;28;20500;-46
2022/02/23 05:33:32;;;;;;;0.73;0.28;;;4.90;99.90;;;;;;20660015;28;20049;-46
2022/02/23 05:43:33;;;;;;;2.15;0.65;;;4.90;99.90;;;;;;20669227;28;20046;-46
2022/02/23 05:53:36;;;;;;;4.10;0.52;;;4.80;99.90;;;;;;20666831;28;20104;-46
2022/02/23 06:03:37;;;;;;;2.60;0.63;;;4.80;99.90;;;;;;20666004;28;20049;-46
2022/02/23 06:13:38;;;;;;;4.72;1.20;;;4.80;99.90;;;;;;20651050;28;20034;-46
2022/02/23 06:23:39;;;;;;;2.42;0.30;;;4.70;99.90;;;;;;20654516;28;20498;-46
2022/02/23 06:33:45;;;;;;;1.25;0.52;;;4.70;99.90;;;;;;20651089;28;20053;-46
2022/02/23 06:43:47;;;;;;;8.20;1.07;;;4.70;99.90;;;;;;20652219;28;20503;-46
2022/02/23 06:53:49;;;;;;;3.50;1.33;;;4.60;99.90;;;;;;20654627;28;20039;-46
2022/02/23 07:03:53;;;;;;;2.20;0.70;;;4.60;99.90;;;;;;20633558;28;20054;-46
2022/02/23 07:13:54;;;;;;;2.95;1.02;;;4.60;99.90;;;;;;20641857;28;20049;-46
2022/02/23 07:23:55;;;;;;;8.68;1.77;;;4.60;99.90;;;;;;20640304;28;20039;-46
2022/02/23 07:33:56;;;;;;;2.53;0.93;;;4.50;99.90;;;;;;20643038;28;20037;-46
2022/02/23 07:43:58;;;;;;;2.25;0.68;;;4.60;99.90;;;;;;20645821;28;20058;-46
2022/02/23 07:53:59;;;;;;;4.10;1.33;;;4.70;99.90;;;;;;20649842;28;20392;-46
2022/02/23 08:04:03;;;;;;;3.00;0.85;;;4.90;99.90;;;;;;20639379;28;20050;-46
2022/02/23 08:14:08;;;;;;;5.65;1.05;;;5.20;99.90;;;;;;20638966;28;20474;-46
2022/02/23 08:24:09;;;;;;;2.97;0.80;;;5.50;99.90;;;;;;20643122;28;20056;-46
2022/02/23 08:34:11;;;;;;;3.45;0.88;;;5.80;99.90;;;;;;20647566;28;20046;-46
2022/02/23 08:44:13;;;;;;;4.85;1.27;;;6.10;99.90;;;;;;20650794;28;21308;-46
2022/02/23 08:54:16;;;;;;;2.85;1.55;;;6.50;99.90;;;;;;20662185;28;20439;-46
2022/02/23 09:04:18;;;;;;;8.82;1.63;;;6.90;99.90;;;;;;20639167;28;20084;-46
2022/02/23 09:14:19;;;;;;;4.60;1.15;;;7.40;99.90;;;;;;20619733;28;20042;-46
2022/02/23 09:24:20;;;;;;;8.60;1.30;;;7.80;99.90;;;;;;20583479;28;20052;-46
2022/02/23 09:34:23;;;;;;;4.28;1.08;;;8.20;99.90;;;;;;20624948;28;20035;-46
2022/02/23 09:44:27;;;;;;;4.50;0.70;;;8.40;99.90;;;;;;20674462;28;20037;-46
2022/02/23 09:54:28;;;;;;;6.53;1.20;;;8.70;99.90;;;;;;20665338;28;20038;-46
2022/02/23 10:04:34;;;;;;;6.32;1.38;;;8.70;99.90;;;;;;20674344;28;20062;-46
2022/02/23 10:14:35;;;;;;;12.32;2.35;;;8.90;99.90;;;;;;20674558;28;20232;-46
2022/02/23 10:24:39;;;;;;;8.13;1.92;;;8.90;99.90;;;;;;20675569;28;20050;-46
2022/02/23 10:34:55;;;;;;;5.60;3.13;;;9.20;99.90;;;;;;20684312;28;20042;-47
2022/02/23 10:44:58;;;;;;;3.25;1.30;;;9.50;99.90;;;;;;20669525;28;20050;-47
2022/02/23 10:55:22;;;;;;;4.97;1.70;;;9.70;99.90;;;;;;20677017;28;20039;-47
2022/02/23 11:05:25;;;;;;;7.63;1.45;;;10.00;99.90;;;;;;20666179;28;20418;-47
2022/02/23 11:15:30;;;;;;;4.80;1.42;;;10.50;99.90;;;;;;20654940;28;20046;-46
2022/02/23 11:25:38;;;;;;;4.88;1.35;;;10.60;99.90;;;;;;20665077;28;20056;-47
2022/02/23 11:35:41;;;;;;;11.90;1.20;;;11.20;99.90;;;;;;20653781;28;20538;-47
2022/02/23 11:45:53;;;;;;;7.53;2.28;;;11.60;99.90;;;;;;20617415;28;20046;-47
2022/02/23 11:56:12;;;;;;;2.28;0.93;;;12.00;99.90;;;;;;20664895;28;20057;-47
2022/02/23 12:06:14;;;;;;;4.43;1.20;;;12.20;99.90;;;;;;20638859;28;20124;-47
2022/02/23 12:16:19;;;;;;;7.35;0.95;;;12.10;99.90;;;;;;20635137;28;20126;-47
2022/02/23 12:26:22;;;;;;;2.28;0.60;;;12.80;99.90;;;;;;20640879;28;20053;-47
2022/02/23 12:36:30;;;;;;;2.53;0.60;;;12.90;99.90;;;;;;20653231;28;20042;-46
2022/02/23 12:46:35;;;;;;;2.42;0.52;;;12.90;99.90;;;;;;20650252;28;20042;-46
2022/02/23 12:56:40;;;;;;;2.67;0.82;;;12.80;99.90;;;;;;20618500;28;20076;-46
2022/02/23 13:07:04;;;;;;;7.47;1.40;;;13.30;99.90;;;;;;20644138;28;20045;-47
2022/02/23 13:17:08;;;;;;;5.68;1.27;;;13.20;99.90;;;;;;20640346;28;20046;-46
2022/02/23 13:27:17;;;;;;;6.03;1.15;;;13.30;99.90;;;;;;20647516;28;20048;-46
2022/02/23 13:37:30;;;;;;;6.55;1.20;;;12.90;99.90;;;;;;20646435;28;20541;-46
2022/02/23 13:47:32;;;;;;;4.15;0.88;;;13.10;99.90;;;;;;20653733;28;20042;-46
2022/02/23 13:57:37;;;;;;;7.13;0.75;;;13.50;99.90;;;;;;20654569;28;20529;-47
2022/02/23 14:07:58;;;;;;;3.50;0.95;;;13.50;99.90;;;;;;20656970;28;20042;-47
2022/02/23 14:18:19;;;;;;;3.75;0.77;;;13.80;99.90;;;;;;20651087;28;20043;-46
2022/02/23 14:28:46;;;;;;;6.20;0.47;;;13.60;99.90;;;;;;20656828;28;22283;-46
2022/02/23 14:38:48;;;;;;;1.88;0.40;;;13.80;99.90;;;;;;20647946;28;20046;-46
2022/02/23 14:48:49;;;;;;;3.38;0.75;;;13.20;99.90;;;;;;20651882;28;20050;-46
2022/02/23 14:58:52;;;;;;;2.78;0.93;;;12.30;99.90;;;;;;20656604;28;20566;-46
2022/02/23 15:08:53;;;;;;;4.15;0.73;;;12.20;99.90;;;;;;20650931;28;20048;-45
2022/02/23 15:18:54;;;;;;;3.80;0.70;;;12.30;99.90;;;;;;20652858;28;20050;-45
2022/02/23 15:28:55;;;;;;;1.83;0.50;;;11.90;99.90;;;;;;20657373;28;20489;-45
2022/02/23 15:38:56;;;;;;;4.65;0.70;;;11.50;99.90;;;;;;20662392;28;20038;-45
2022/02/23 15:48:57;;;;;;;5.22;1.10;;;11.30;99.90;;;;;;20654439;28;20054;-45
2022/02/23 15:58:59;;;;;;;4.00;1.15;;;11.20;99.90;;;;;;20668584;28;20050;-46
2022/02/23 16:09:01;;;;;;;3.75;1.00;;;11.00;99.90;;;;;;20657852;28;20042;-46
2022/02/23 16:19:02;;;;;;;12.20;1.05;;;10.70;99.90;;;;;;20653437;28;20081;-46
2022/02/23 16:29:04;;;;;;;2.97;0.80;;;10.60;99.90;;;;;;20645453;28;20053;-46
2022/02/23 16:39:06;;;;;;;3.60;0.63;;;10.50;99.90;;;;;;20614149;28;20045;-46
2022/02/23 16:49:08;;;;;;;2.75;0.55;;;10.40;99.90;;;;;;20650477;28;20038;-46
2022/02/23 16:59:10;;;;;;;4.03;0.50;;;10.30;99.90;;;;;;20643924;28;20054;-45
2022/02/23 17:09:12;;;;;;;1.70;0.52;;;10.30;99.90;;;;;;20646712;28;20042;-46
2022/02/23 17:19:13;;;;;;;4.32;0.50;;;10.20;99.90;;;;;;20667306;28;20546;-46
2022/02/23 17:29:14;;;;;;;0.95;0.47;;;10.10;99.90;;;;;;20626907;28;20521;-46
2022/02/23 17:39:15;;;;;;;1.75;0.50;;;10.10;99.90;;;;;;20667282;28;20046;-45
2022/02/23 17:49:16;;;;;;;2.85;1.13;;;10.10;99.90;;;;;;20650106;28;20317;-45
2022/02/23 17:59:18;;;;;;;1.15;0.40;;;10.10;99.90;;;;;;20661952;28;20117;-45
2022/02/23 18:09:19;;;;;;;2.15;0.30;;;10.00;99.90;;;;;;20665344;28;20041;-45
2022/02/23 18:19:21;;;;;;;3.20;0.60;;;10.00;99.90;;;;;;20663157;28;20502;-45
2022/02/23 18:29:24;;;;;;;3.35;0.82;;;10.00;99.90;;;;;;20663236;28;20502;-45
2022/02/23 18:39:25;;;;;;;3.15;0.68;;;10.00;99.90;;;;;;20691118;28;20051;-45
2022/02/23 18:49:27;;;;;;;2.42;0.52;;;10.00;99.90;;;;;;20684348;28;20036;-45
2022/02/23 18:59:28;;;;;;;4.65;0.80;;;9.90;99.90;;;;;;20685685;28;20046;-45
2022/02/23 19:09:30;;;;;;;1.85;0.57;;;9.90;99.90;;;;;;20687070;28;20042;-45
2022/02/23 19:19:31;;;;;;;1.60;0.60;;;9.80;99.90;;;;;;20681630;28;20513;-45
2022/02/23 19:29:33;;;;;;;2.05;0.55;;;9.70;99.90;;;;;;20687874;28;20054;-45
2022/02/23 19:39:34;;;;;;;5.88;1.48;;;9.60;99.90;;;;;;20689757;28;20049;-45
2022/02/23 19:49:35;;;;;;;4.25;0.70;;;9.50;99.90;;;;;;20692571;28;20041;-45
2022/02/23 19:59:36;;;;;;;5.65;0.82;;;9.40;99.90;;;;;;20693608;28;20051;-45
2022/02/23 20:09:38;;;;;;;2.28;0.95;;;9.20;99.90;;;;;;20682958;28;20486;-45
2022/02/23 20:19:39;;;;;;;4.68;0.90;;;9.10;99.90;;;;;;20680931;28;20109;-45
2022/02/23 20:29:40;;;;;;;3.40;0.80;;;9.00;99.90;;;;;;20677681;28;20117;-46
2022/02/23 20:39:42;;;;;;;4.57;0.85;;;8.90;99.90;;;;;;20682464;28;20050;-45
2022/02/23 20:49:43;;;;;;;4.45;1.17;;;8.80;99.90;;;;;;20687963;28;20073;-45
2022/02/23 20:59:44;;;;;;;8.15;1.00;;;8.60;99.90;;;;;;20667291;28;20506;-46
2022/02/23 21:09:45;;;;;;;5.43;1.40;;;8.40;99.90;;;;;;20679073;28;20153;-45
2022/02/23 21:19:46;;;;;;;3.40;0.70;;;8.30;99.90;;;;;;20673561;28;20445;-45
2022/02/23 21:29:48;;;;;;;9.48;1.35;;;8.10;99.90;;;;;;20672722;28;20042;-45
2022/02/23 21:39:50;;;;;;;6.38;1.40;;;8.00;99.90;;;;;;20703351;28;20073;-45
2022/02/23 21:49:52;;;;;;;9.57;1.45;;;8.00;99.90;;;;;;20694566;28;20049;-45
2022/02/23 21:59:53;;;;;;;6.40;1.08;;;7.90;99.90;;;;;;20686272;28;20366;-45
2022/02/23 22:09:54;;;;;;;5.65;0.77;;;7.90;99.90;;;;;;20679589;28;20050;-45
2022/02/23 22:19:56;;;;;;;2.63;0.80;;;7.90;99.90;;;;;;20700251;28;20383;-45
2022/02/23 22:29:57;;;;;;;3.88;1.65;;;7.90;99.90;;;;;;20687896;28;20042;-45
2022/02/23 22:39:58;;;;;;;5.53;0.93;;;7.90;99.90;;;;;;20680417;28;20042;-45
2022/02/23 22:49:59;;;;;;;11.10;1.15;;;7.90;99.90;;;;;;20687320;28;20037;-46
2022/02/23 23:00:01;;;;;;;2.95;0.80;;;7.90;99.90;;;;;;20683896;28;20049;-45
2022/02/23 23:10:02;;;;;;;4.63;0.95;;;8.00;99.90;;;;;;20685420;28;20053;-46
2022/02/23 23:20:04;;;;;;;5.95;1.17;;;8.00;99.90;;;;;;20679016;28;20045;-45
2022/02/23 23:30:05;;;;;;;11.05;1.40;;;8.00;99.90;;;;;;20679690;28;20386;-45
2022/02/23 23:40:07;;;;;;;3.47;0.80;;;7.90;99.90;;;;;;20682959;28;20042;-46
2022/02/23 23:50:09;;;;;;;4.15;0.70;;;7.90;99.90;;;;;;20672328;28;20039;-45
